Time;durP1;ratioP1;P1;durP2;ratioP2;P2;SDS_P1;SDS_P2;PMS_P1;PMS_P2;Temp;Humidity;BMP_temperature;BMP_pressure;BME280_temperature;BME280_humidity;BME280_pressure;Samples;Min_cycle;Max_cycle;Signal;HPM_P1;HPM_P2
2022/08/21 00:01:43;;;;;;;;;;;;;;;;;;4994719;28;19963;-62
2022/08/21 00:04:10;;;;;;;;;;;;;;;;;;5010829;28;19924;-62
2022/08/21 00:06:35;;;;;;;;;;;;;;;;;;4995198;28;21881;-62
2022/08/21 00:09:01;;;;;;;;;;;;;;;;;;5024294;28;19917;-62
2022/08/21 00:11:27;;;;;;;;;;;;;;;;;;4994293;28;19925;-64
2022/08/21 00:13:52;;;;;;;;;;;;;;;;;;4978550;28;19943;-61
2022/08/21 00:16:17;;;;;;;;;;;;;;;;;;4998584;28;19921;-63
2022/08/21 00:18:42;;;;;;;;;;;;;;;;;;4992978;28;20328;-62
2022/08/21 00:21:08;;;;;;;;;;;;;;;;;;4999371;28;19925;-61
2022/08/21 00:23:33;;;;;;;;;;;;;;;;;;5002014;28;20687;-62
2022/08/21 00:25:59;;;;;;;;;;;;;;;;;;4992682;28;19932;-61
2022/08/21 00:28:24;;;;;;;;;;;;;;;;;;5024977;28;19925;-63
2022/08/21 00:30:50;;;;;;;;;;;;;;;;;;5010003;28;19929;-62
2022/08/21 00:33:17;;;;;;;;;;;;;;;;;;4992310;28;19952;-62
2022/08/21 00:35:43;;;;;;;;;;;;;;;;;;4995159;28;19925;-62
2022/08/21 00:38:09;;;;;;;;;;;;;;;;;;5027064;28;20217;-61
2022/08/21 00:40:35;;;;;;;;;;;;;;;;;;4994028;28;20055;-62
2022/08/21 00:43:00;;;;;;;;;;;;;;;;;;4992594;28;19932;-63
2022/08/21 00:45:27;;;;;;;;;;;;;;;;;;4996428;28;20002;-62
2022/08/21 00:47:55;;;;;;;;;;;;;;;;;;4997513;28;19917;-62
2022/08/21 00:50:21;;;;;;;;;;;;;;;;;;4993703;28;19964;-62
2022/08/21 00:52:46;;;;;;;;;;;;;;;;;;5026772;28;19922;-62
2022/08/21 00:55:14;;;;;;;;;;;;;;;;;;5025974;28;19921;-62
2022/08/21 00:57:39;;;;;;;;;;;;;;;;;;4992338;28;19968;-62
2022/08/21 01:00:05;;;;;;;;;;;;;;;;;;5026133;28;19922;-61
2022/08/21 01:02:30;;;;;;;;;;;;;;;;;;4989924;28;19925;-61
2022/08/21 01:04:55;;;;;;;;;;;;;;;;;;5024190;28;22505;-62
2022/08/21 01:07:21;;;;;;;;;;;;;;;;;;4994761;28;19925;-61
2022/08/21 01:09:49;;;;;;;;;;;;;;;;;;4999333;28;21831;-62
2022/08/21 01:12:14;;;;;;;;;;;;;;;;;;5023174;28;19925;-61
2022/08/21 01:14:40;;;;;;;;;;;;;;;;;;4993641;28;19971;-61
2022/08/21 01:17:05;;;;;;;;;;;;;;;;;;4994611;28;19928;-61
2022/08/21 01:19:31;;;;;;;;;;;;;;;;;;4979271;28;21060;-62
2022/08/21 01:21:59;;;;;;;;;;;;;;;;;;4993697;28;19956;-62
2022/08/21 01:24:31;;;;;;;;;;;;;;;;;;4998185;28;19925;-61
2022/08/21 01:26:59;;;;;;;;;;;;;;;;;;5025191;28;19921;-61
2022/08/21 01:29:24;;;;;;;;;;;;;;;;;;4996259;28;20332;-61
2022/08/21 01:31:52;;;;;;;;;;;;;;;;;;5007362;28;19953;-62
2022/08/21 01:34:22;;;;;;;;;;;;;;;;;;4995465;28;19921;-62
2022/08/21 01:36:50;;;;;;;;;;;;;;;;;;4996658;28;19921;-61
2022/08/21 01:39:18;;;;;;;;;;;;;;;;;;4994489;28;19960;-62
2022/08/21 01:41:45;;;;;;;;;;;;;;;;;;4982308;28;19925;-62
2022/08/21 01:44:11;;;;;;;;;;;;;;;;;;4993764;28;20554;-63
2022/08/21 01:46:39;;;;;;;;;;;;;;;;;;5003817;28;19925;-62
2022/08/21 01:49:07;;;;;;;;;;;;;;;;;;5001109;28;19975;-62
2022/08/21 01:51:35;;;;;;;;;;;;;;;;;;5005078;28;19917;-66
2022/08/21 01:54:00;;;;;;;;;;;;;;;;;;5015139;28;19951;-59
2022/08/21 01:56:26;;;;;;;;;;;;;;;;;;5032760;28;20444;-62
2022/08/21 01:58:53;;;;;;;;;;;;;;;;;;5000145;28;21856;-61
2022/08/21 02:01:19;;;;;;;;;;;;;;;;;;5017144;28;19921;-61
2022/08/21 02:03:49;;;;;;;;;;;;;;;;;;5000700;28;19918;-62
2022/08/21 02:06:15;;;;;;;;;;;;;;;;;;5005388;28;19956;-63
2022/08/21 02:08:40;;;;;;;;;;;;;;;;;;5003746;28;20414;-62
2022/08/21 02:11:06;;;;;;;;;;;;;;;;;;5001536;28;19937;-63
2022/08/21 02:13:31;;;;;;;;;;;;;;;;;;5026615;28;19925;-62
2022/08/21 02:16:01;;;;;;;;;;;;;;;;;;5001741;28;20932;-61
2022/08/21 02:18:29;;;;;;;;;;;;;;;;;;5032048;28;20020;-62
2022/08/21 02:20:57;;;;;;;;;;;;;;;;;;5002701;28;19917;-61
2022/08/21 02:23:23;;;;;;;;;;;;;;;;;;5016130;28;19922;-63
2022/08/21 02:25:51;;;;;;;;;;;;;;;;;;5003555;28;19935;-62
2022/08/21 02:28:16;;;;;;;;;;;;;;;;;;5000102;28;19925;-63
2022/08/21 02:30:42;;;;;;;;;;;;;;;;;;5000032;28;20347;-63
2022/08/21 02:33:07;;;;;;;;;;;;;;;;;;5002435;28;19929;-61
2022/08/21 02:35:33;;;;;;;;;;;;;;;;;;5033957;28;20019;-63
2022/08/21 02:38:00;;;;;;;;;;;;;;;;;;5031344;28;19917;-62
2022/08/21 02:40:26;;;;;;;;;;;;;;;;;;5002867;28;19932;-61
2022/08/21 02:42:56;;;;;;;;;;;;;;;;;;4999831;28;19932;-61
2022/08/21 02:45:22;;;;;;;;;;;;;;;;;;5000798;28;20099;-61
2022/08/21 02:47:50;;;;;;;;;;;;;;;;;;5002836;28;21894;-61
2022/08/21 02:50:15;;;;;;;;;;;;;;;;;;5000826;28;19926;-61
2022/08/21 02:52:41;;;;;;;;;;;;;;;;;;5001256;28;21404;-61
2022/08/21 02:55:06;;;;;;;;;;;;;;;;;;5001738;28;19975;-61
2022/08/21 02:57:32;;;;;;;;;;;;;;;;;;4998183;28;19975;-62
2022/08/21 02:59:58;;;;;;;;;;;;;;;;;;5002260;28;19999;-61
2022/08/21 03:02:26;;;;;;;;;;;;;;;;;;4998354;28;19917;-62
2022/08/21 03:04:51;;;;;;;;;;;;;;;;;;4988120;28;19998;-62
2022/08/21 03:07:17;;;;;;;;;;;;;;;;;;5031469;28;19917;-60
2022/08/21 03:09:43;;;;;;;;;;;;;;;;;;5027534;28;19963;-62
2022/08/21 03:12:10;;;;;;;;;;;;;;;;;;4998083;28;20657;-66
2022/08/21 03:14:38;;;;;;;;;;;;;;;;;;5005638;28;20003;-63
2022/08/21 03:17:03;;;;;;;;;;;;;;;;;;5016969;28;20281;-63
2022/08/21 03:22:45;;;;;;;;;;;;;;;;;;4998158;28;20018;-63
2022/08/21 03:25:10;;;;;;;;;;;;;;;;;;4985855;28;19928;-61
2022/08/21 03:27:38;;;;;;;;;;;;;;;;;;4998360;28;19917;-62
2022/08/21 03:30:04;;;;;;;;;;;;;;;;;;5028930;28;19972;-62
2022/08/21 03:32:31;;;;;;;;;;;;;;;;;;4996643;28;19931;-61
2022/08/21 03:35:00;;;;;;;;;;;;;;;;;;4998588;28;19936;-62
2022/08/21 03:37:25;;;;;;;;;;;;;;;;;;4997754;28;19940;-62
2022/08/21 03:39:50;;;;;;;;;;;;;;;;;;5002120;28;19953;-62
2022/08/21 03:42:15;;;;;;;;;;;;;;;;;;5016564;28;19922;-61
2022/08/21 03:44:41;;;;;;;;;;;;;;;;;;4997216;28;20281;-62
2022/08/21 03:47:06;;;;;;;;;;;;;;;;;;4998795;28;19932;-61
2022/08/21 03:49:33;;;;;;;;;;;;;;;;;;4997023;28;20044;-61
2022/08/21 03:51:58;;;;;;;;;;;;;;;;;;5000814;28;19921;-62
2022/08/21 03:54:26;;;;;;;;;;;;;;;;;;5000748;28;19917;-62
2022/08/21 03:56:54;;;;;;;;;;;;;;;;;;4991651;28;19928;-62
2022/08/21 03:59:22;;;;;;;;;;;;;;;;;;4995818;28;20012;-62
2022/08/21 04:01:48;;;;;;;;;;;;;;;;;;4994862;28;19922;-62
2022/08/21 04:04:13;;;;;;;;;;;;;;;;;;4996406;28;19972;-62
2022/08/21 04:06:41;;;;;;;;;;;;;;;;;;4998899;28;20013;-62
2022/08/21 04:09:08;;;;;;;;;;;;;;;;;;4995141;28;19917;-62
2022/08/21 04:11:33;;;;;;;;;;;;;;;;;;4983859;28;20032;-61
2022/08/21 04:13:58;;;;;;;;;;;;;;;;;;4995422;28;19921;-62
2022/08/21 04:16:24;;;;;;;;;;;;;;;;;;4994312;28;19931;-62
2022/08/21 04:18:50;;;;;;;;;;;;;;;;;;4996108;28;20040;-61
2022/08/21 04:21:15;;;;;;;;;;;;;;;;;;4997785;28;19921;-62
2022/08/21 04:23:43;;;;;;;;;;;;;;;;;;4995520;28;19956;-62
2022/08/21 04:26:08;;;;;;;;;;;;;;;;;;4980564;28;19924;-61
2022/08/21 04:28:38;;;;;;;;;;;;;;;;;;5009796;28;19922;-61
2022/08/21 04:31:06;;;;;;;;;;;;;;;;;;4997439;28;19929;-61
2022/08/21 04:33:32;;;;;;;;;;;;;;;;;;4996511;28;19918;-62
2022/08/21 04:35:59;;;;;;;;;;;;;;;;;;5028179;28;19965;-61
2022/08/21 04:41:19;;;;;;;;;;;;;;;;;;4997161;28;19924;-61
2022/08/21 04:43:44;;;;;;;;;;;;;;;;;;5008587;28;19922;-61
2022/08/21 04:46:09;;;;;;;;;;;;;;;;;;4994786;28;19932;-62
2022/08/21 04:48:35;;;;;;;;;;;;;;;;;;4994242;28;20044;-62
2022/08/21 04:51:00;;;;;;;;;;;;;;;;;;5001133;28;19921;-61
2022/08/21 04:53:26;;;;;;;;;;;;;;;;;;4995354;28;19921;-62
2022/08/21 04:55:52;;;;;;;;;;;;;;;;;;4994996;28;19961;-62
2022/08/21 04:58:17;;;;;;;;;;;;;;;;;;5028322;28;19917;-61
2022/08/21 05:00:43;;;;;;;;;;;;;;;;;;4997811;28;19939;-62
2022/08/21 05:03:08;;;;;;;;;;;;;;;;;;5009166;28;19923;-62
2022/08/21 05:05:36;;;;;;;;;;;;;;;;;;4999042;28;19925;-62
2022/08/21 05:08:02;;;;;;;;;;;;;;;;;;4994217;28;20016;-61
2022/08/21 05:10:27;;;;;;;;;;;;;;;;;;5026290;28;19936;-62
2022/08/21 05:12:55;;;;;;;;;;;;;;;;;;5000889;28;19920;-61
2022/08/21 05:15:22;;;;;;;;;;;;;;;;;;4997188;28;19964;-61
2022/08/21 05:17:50;;;;;;;;;;;;;;;;;;4997936;28;19932;-62
2022/08/21 05:20:15;;;;;;;;;;;;;;;;;;4996230;28;20034;-63
2022/08/21 05:22:43;;;;;;;;;;;;;;;;;;4997701;28;19967;-63
2022/08/21 05:25:11;;;;;;;;;;;;;;;;;;4994775;28;19964;-62
2022/08/21 05:27:38;;;;;;;;;;;;;;;;;;5000461;28;19929;-63
2022/08/21 05:30:04;;;;;;;;;;;;;;;;;;5013878;28;19934;-63
2022/08/21 05:32:30;;;;;;;;;;;;;;;;;;5011462;28;19963;-62
2022/08/21 05:34:56;;;;;;;;;;;;;;;;;;5029414;28;19932;-62
2022/08/21 05:37:21;;;;;;;;;;;;;;;;;;4999736;28;19928;-62
2022/08/21 05:39:46;;;;;;;;;;;;;;;;;;5028247;28;19927;-62
2022/08/21 05:42:14;;;;;;;;;;;;;;;;;;4996795;28;19917;-63
2022/08/21 05:44:39;;;;;;;;;;;;;;;;;;4980167;28;19921;-62
2022/08/21 05:47:08;;;;;;;;;;;;;;;;;;5009737;28;20004;-63
2022/08/21 05:49:35;;;;;;;;;;;;;;;;;;4995461;28;20012;-63
2022/08/21 05:52:03;;;;;;;;;;;;;;;;;;5001023;28;19992;-63
2022/08/21 05:54:28;;;;;;;;;;;;;;;;;;4982145;28;20563;-62
2022/08/21 05:56:53;;;;;;;;;;;;;;;;;;5028092;28;19922;-62
2022/08/21 05:59:19;;;;;;;;;;;;;;;;;;4997072;28;19924;-63
2022/08/21 06:01:46;;;;;;;;;;;;;;;;;;5013388;28;19917;-62
2022/08/21 06:04:14;;;;;;;;;;;;;;;;;;4995336;28;19925;-62
2022/08/21 06:06:39;;;;;;;;;;;;;;;;;;4998293;28;19932;-63
2022/08/21 06:09:47;;;;;;;;;;;;;;;;;;5011434;28;19960;-64
2022/08/21 06:11:53;;;;;;;;;;;;;;;;;;4993625;28;20038;-65
2022/08/21 06:14:18;;;;;;;;;;;;;;;;;;4989786;28;19917;-64
2022/08/21 06:16:46;;;;;;;;;;;;;;;;;;5013601;28;19922;-64
2022/08/21 06:19:11;;;;;;;;;;;;;;;;;;4999408;28;19928;-63
2022/08/21 06:21:37;;;;;;;;;;;;;;;;;;5000484;28;19921;-64
2022/08/21 06:24:04;;;;;;;;;;;;;;;;;;4994475;28;20007;-63
2022/08/21 06:26:29;;;;;;;;;;;;;;;;;;5008044;28;19927;-64
2022/08/21 06:28:55;;;;;;;;;;;;;;;;;;4992946;28;19918;-64
2022/08/21 06:31:21;;;;;;;;;;;;;;;;;;4996188;28;19968;-65
2022/08/21 06:33:46;;;;;;;;;;;;;;;;;;5012938;28;19923;-64
2022/08/21 06:36:12;;;;;;;;;;;;;;;;;;5003306;28;19925;-63
2022/08/21 06:38:40;;;;;;;;;;;;;;;;;;4999830;28;19921;-63
2022/08/21 06:41:09;;;;;;;;;;;;;;;;;;5004083;28;19921;-63
2022/08/21 06:43:37;;;;;;;;;;;;;;;;;;5016037;28;19921;-64
2022/08/21 06:46:02;;;;;;;;;;;;;;;;;;5026777;28;19999;-64
2022/08/21 06:48:29;;;;;;;;;;;;;;;;;;5028913;28;19922;-65
2022/08/21 06:50:57;;;;;;;;;;;;;;;;;;5015873;28;20075;-65
2022/08/21 06:53:27;;;;;;;;;;;;;;;;;;4998307;28;20776;-65
2022/08/21 06:55:54;;;;;;;;;;;;;;;;;;5000855;28;20641;-64
2022/08/21 06:58:20;;;;;;;;;;;;;;;;;;4995526;28;19917;-64
2022/08/21 07:00:48;;;;;;;;;;;;;;;;;;4995021;28;20016;-69
2022/08/21 07:03:13;;;;;;;;;;;;;;;;;;4984311;28;19921;-67
2022/08/21 07:05:41;;;;;;;;;;;;;;;;;;4993764;28;19925;-66
2022/08/21 07:08:06;;;;;;;;;;;;;;;;;;5009625;28;19932;-67
2022/08/21 07:10:31;;;;;;;;;;;;;;;;;;5002049;28;19928;-64
2022/08/21 07:12:57;;;;;;;;;;;;;;;;;;4994315;28;20426;-69
2022/08/21 07:15:25;;;;;;;;;;;;;;;;;;5010248;28;19921;-64
2022/08/21 07:17:52;;;;;;;;;;;;;;;;;;4998300;28;19951;-63
2022/08/21 07:20:18;;;;;;;;;;;;;;;;;;5032261;28;20384;-65
2022/08/21 07:22:43;;;;;;;;;;;;;;;;;;5003399;28;20024;-66
2022/08/21 07:25:09;;;;;;;;;;;;;;;;;;4999391;28;20040;-70
2022/08/21 07:27:34;;;;;;;;;;;;;;;;;;5002250;28;20237;-65
2022/08/21 07:30:05;;;;;;;;;;;;;;;;;;4998056;28;19976;-64
2022/08/21 07:32:31;;;;;;;;;;;;;;;;;;5004177;28;19917;-67
2022/08/21 07:34:57;;;;;;;;;;;;;;;;;;4995332;28;20380;-64
2022/08/21 07:37:23;;;;;;;;;;;;;;;;;;4995028;28;19921;-66
2022/08/21 07:39:48;;;;;;;;;;;;;;;;;;4992994;28;19959;-68
2022/08/21 07:42:14;;;;;;;;;;;;;;;;;;4998458;28;19991;-65
2022/08/21 07:44:43;;;;;;;;;;;;;;;;;;4997876;28;19921;-65
2022/08/21 07:47:09;;;;;;;;;;;;;;;;;;4993305;28;19932;-63
2022/08/21 07:49:35;;;;;;;;;;;;;;;;;;4993462;28;19949;-70
2022/08/21 07:52:00;;;;;;;;;;;;;;;;;;5000373;28;19928;-62
2022/08/21 07:54:26;;;;;;;;;;;;;;;;;;5013897;28;19924;-65
2022/08/21 07:56:51;;;;;;;;;;;;;;;;;;5024864;28;20433;-68
2022/08/21 07:59:17;;;;;;;;;;;;;;;;;;4996137;28;19918;-70
2022/08/21 08:01:42;;;;;;;;;;;;;;;;;;4994401;28;19948;-64
2022/08/21 08:04:08;;;;;;;;;;;;;;;;;;4996818;28;19964;-67
2022/08/21 08:06:34;;;;;;;;;;;;;;;;;;4995274;28;20461;-68
2022/08/21 08:09:01;;;;;;;;;;;;;;;;;;4996559;28;20431;-63
2022/08/21 08:11:26;;;;;;;;;;;;;;;;;;4993449;28;19943;-64
2022/08/21 08:13:52;;;;;;;;;;;;;;;;;;4999769;28;19921;-66
2022/08/21 08:16:17;;;;;;;;;;;;;;;;;;4996938;28;19917;-66
2022/08/21 08:18:44;;;;;;;;;;;;;;;;;;5024855;28;19960;-74
2022/08/21 08:21:10;;;;;;;;;;;;;;;;;;5011031;28;19974;-72
2022/08/21 08:23:38;;;;;;;;;;;;;;;;;;4993057;28;20834;-64
2022/08/21 08:26:08;;;;;;;;;;;;;;;;;;5004164;28;19925;-64
2022/08/21 08:28:34;;;;;;;;;;;;;;;;;;4994654;28;19979;-66
2022/08/21 08:30:59;;;;;;;;;;;;;;;;;;4993034;28;20467;-64
2022/08/21 08:33:25;;;;;;;;;;;;;;;;;;4995896;28;19936;-67
2022/08/21 08:35:51;;;;;;;;;;;;;;;;;;4993848;28;19924;-70
2022/08/21 08:38:19;;;;;;;;;;;;;;;;;;4997431;28;20015;-64
2022/08/21 08:40:46;;;;;;;;;;;;;;;;;;4996994;28;20493;-64
2022/08/21 08:43:13;;;;;;;;;;;;;;;;;;4997346;28;19983;-67
2022/08/21 08:45:38;;;;;;;;;;;;;;;;;;5026658;28;20392;-68
2022/08/21 08:48:04;;;;;;;;;;;;;;;;;;4996144;28;20040;-69
2022/08/21 08:50:29;;;;;;;;;;;;;;;;;;5001201;28;19929;-67
2022/08/21 08:52:57;;;;;;;;;;;;;;;;;;5000475;28;19960;-65
2022/08/21 08:55:22;;;;;;;;;;;;;;;;;;4997254;28;19945;-67
2022/08/21 08:57:47;;;;;;;;;;;;;;;;;;5026718;28;19921;-66
2022/08/21 09:00:13;;;;;;;;;;;;;;;;;;4995905;28;19917;-66
2022/08/21 09:02:38;;;;;;;;;;;;;;;;;;5027895;28;20047;-64
2022/08/21 09:05:04;;;;;;;;;;;;;;;;;;4997050;28;19928;-64
2022/08/21 09:07:30;;;;;;;;;;;;;;;;;;5012712;28;19953;-70
2022/08/21 09:09:58;;;;;;;;;;;;;;;;;;5002220;28;19971;-64
2022/08/21 09:12:23;;;;;;;;;;;;;;;;;;4997946;28;19925;-69
2022/08/21 09:14:49;;;;;;;;;;;;;;;;;;5013387;28;19917;-65
2022/08/21 09:17:16;;;;;;;;;;;;;;;;;;4984921;28;19967;-65
2022/08/21 09:19:46;;;;;;;;;;;;;;;;;;4989462;28;19935;-64
2022/08/21 09:22:11;;;;;;;;;;;;;;;;;;5000212;28;20471;-63
2022/08/21 09:24:40;;;;;;;;;;;;;;;;;;4996293;28;19991;-66
2022/08/21 09:27:05;;;;;;;;;;;;;;;;;;4983631;28;20581;-65
2022/08/21 09:29:31;;;;;;;;;;;;;;;;;;5002171;28;20534;-69
2022/08/21 09:31:56;;;;;;;;;;;;;;;;;;5003144;28;20008;-66
2022/08/21 09:34:24;;;;;;;;;;;;;;;;;;4995530;28;19922;-67
2022/08/21 09:36:50;;;;;;;;;;;;;;;;;;4998295;28;19932;-66
2022/08/21 09:39:16;;;;;;;;;;;;;;;;;;4993619;28;19921;-66
2022/08/21 09:41:41;;;;;;;;;;;;;;;;;;4994994;28;19992;-68
2022/08/21 09:44:07;;;;;;;;;;;;;;;;;;4993222;28;19931;-66
2022/08/21 09:46:32;;;;;;;;;;;;;;;;;;5025529;28;20839;-66
2022/08/21 09:48:58;;;;;;;;;;;;;;;;;;4994313;28;20277;-64
2022/08/21 09:51:24;;;;;;;;;;;;;;;;;;4996290;28;19921;-66
2022/08/21 09:53:49;;;;;;;;;;;;;;;;;;4999203;28;20723;-63
2022/08/21 09:59:01;;;;;;;;;;;;;;;;;;4991808;28;20004;-65
2022/08/21 10:01:26;;;;;;;;;;;;;;;;;;4996464;28;20623;-69
2022/08/21 10:03:52;;;;;;;;;;;;;;;;;;4996587;28;20386;-67
2022/08/21 10:06:20;;;;;;;;;;;;;;;;;;4998337;28;20023;-66
2022/08/21 10:08:46;;;;;;;;;;;;;;;;;;5004679;28;19917;-69
2022/08/21 10:11:14;;;;;;;;;;;;;;;;;;4998581;28;20047;-67
2022/08/21 10:13:39;;;;;;;;;;;;;;;;;;4999563;28;20541;-64
2022/08/21 10:16:04;;;;;;;;;;;;;;;;;;4999264;28;20053;-66
2022/08/21 10:18:30;;;;;;;;;;;;;;;;;;4985179;28;19970;-66
2022/08/21 10:20:56;;;;;;;;;;;;;;;;;;4999548;28;20004;-68
2022/08/21 10:23:24;;;;;;;;;;;;;;;;;;4998571;28;19921;-65
2022/08/21 10:25:49;;;;;;;;;;;;;;;;;;4999406;28;20002;-65
2022/08/21 10:28:14;;;;;;;;;;;;;;;;;;5027243;28;19943;-73
2022/08/21 10:30:40;;;;;;;;;;;;;;;;;;5027609;28;19932;-66
2022/08/21 10:33:05;;;;;;;;;;;;;;;;;;4997854;28;19921;-66
2022/08/21 10:35:33;;;;;;;;;;;;;;;;;;4999280;28;19952;-65
2022/08/21 10:37:59;;;;;;;;;;;;;;;;;;4998515;28;19928;-68
2022/08/21 10:40:24;;;;;;;;;;;;;;;;;;5030072;28;20372;-66
2022/08/21 10:42:50;;;;;;;;;;;;;;;;;;4998223;28;19927;-64
2022/08/21 10:45:18;;;;;;;;;;;;;;;;;;4996800;28;20028;-67
2022/08/21 10:47:44;;;;;;;;;;;;;;;;;;5012884;28;19928;-66
2022/08/21 10:50:12;;;;;;;;;;;;;;;;;;5000258;28;19922;-71
2022/08/21 10:52:37;;;;;;;;;;;;;;;;;;4990257;28;19921;-66
2022/08/21 10:55:03;;;;;;;;;;;;;;;;;;5002707;28;19922;-67
2022/08/21 10:57:29;;;;;;;;;;;;;;;;;;5001652;28;19928;-65
2022/08/21 10:59:54;;;;;;;;;;;;;;;;;;4997094;28;19928;-69
2022/08/21 11:02:20;;;;;;;;;;;;;;;;;;4996381;28;20811;-65
2022/08/21 11:04:47;;;;;;;;;;;;;;;;;;5028080;28;19917;-68
2022/08/21 11:07:12;;;;;;;;;;;;;;;;;;5002994;28;19929;-64
2022/08/21 11:09:38;;;;;;;;;;;;;;;;;;4996487;28;20300;-70
2022/08/21 11:12:04;;;;;;;;;;;;;;;;;;4985674;28;19944;-66
2022/08/21 11:14:29;;;;;;;;;;;;;;;;;;4999331;28;19952;-64
2022/08/21 11:16:57;;;;;;;;;;;;;;;;;;4996826;28;19926;-74
2022/08/21 11:22:39;;;;;;;;;;;;;;;;;;4994642;28;20756;-67
2022/08/21 11:25:04;;;;;;;;;;;;;;;;;;4983744;28;19925;-70
2022/08/21 11:27:30;;;;;;;;;;;;;;;;;;4996526;28;19921;-67
2022/08/21 11:29:55;;;;;;;;;;;;;;;;;;5026391;28;19929;-65
2022/08/21 11:32:24;;;;;;;;;;;;;;;;;;5028950;28;19928;-65
2022/08/21 11:34:49;;;;;;;;;;;;;;;;;;4999764;28;19928;-67
2022/08/21 11:37:15;;;;;;;;;;;;;;;;;;4992871;28;19925;-65
2022/08/21 11:39:43;;;;;;;;;;;;;;;;;;4995450;28;20438;-66
2022/08/21 11:42:20;;;;;;;;;;;;;;;;;;5029037;28;20005;-65
2022/08/21 11:44:46;;;;;;;;;;;;;;;;;;4994194;28;19925;-68
2022/08/21 11:47:12;;;;;;;;;;;;;;;;;;4993095;28;19929;-68
2022/08/21 11:49:38;;;;;;;;;;;;;;;;;;4999077;28;20869;-69
2022/08/21 11:52:03;;;;;;;;;;;;;;;;;;4995633;28;20308;-66
2022/08/21 11:54:28;;;;;;;;;;;;;;;;;;4996094;28;21986;-67
2022/08/21 11:56:54;;;;;;;;;;;;;;;;;;4996929;28;19924;-67
2022/08/21 11:59:20;;;;;;;;;;;;;;;;;;4999829;28;19925;-69
2022/08/21 12:01:46;;;;;;;;;;;;;;;;;;4999141;28;19924;-68
2022/08/21 12:04:11;;;;;;;;;;;;;;;;;;4994620;28;20941;-68
2022/08/21 12:06:36;;;;;;;;;;;;;;;;;;4996524;28;19917;-70
2022/08/21 12:09:02;;;;;;;;;;;;;;;;;;5003417;28;20007;-68
2022/08/21 12:11:27;;;;;;;;;;;;;;;;;;4999332;28;19917;-68
2022/08/21 12:13:52;;;;;;;;;;;;;;;;;;4995079;28;20051;-69
2022/08/21 12:16:18;;;;;;;;;;;;;;;;;;5007755;28;19956;-65
2022/08/21 12:18:46;;;;;;;;;;;;;;;;;;4997784;28;19925;-66
2022/08/21 12:21:13;;;;;;;;;;;;;;;;;;4993160;28;20008;-71
2022/08/21 12:23:44;;;;;;;;;;;;;;;;;;4995976;28;19928;-68
2022/08/21 12:26:09;;;;;;;;;;;;;;;;;;4993651;28;19944;-68
2022/08/21 12:28:35;;;;;;;;;;;;;;;;;;5024682;28;21486;-70
2022/08/21 12:31:00;;;;;;;;;;;;;;;;;;4990725;28;19943;-71
2022/08/21 12:33:28;;;;;;;;;;;;;;;;;;4994938;28;19917;-66
2022/08/21 12:35:54;;;;;;;;;;;;;;;;;;5007387;28;19925;-72
2022/08/21 12:38:19;;;;;;;;;;;;;;;;;;4982275;28;19924;-67
2022/08/21 12:40:44;;;;;;;;;;;;;;;;;;4993608;28;20288;-74
2022/08/21 12:43:13;;;;;;;;;;;;;;;;;;4995037;28;19928;-67
2022/08/21 12:45:38;;;;;;;;;;;;;;;;;;4982689;28;19984;-68
2022/08/21 12:48:03;;;;;;;;;;;;;;;;;;5011750;28;20989;-70
2022/08/21 12:50:29;;;;;;;;;;;;;;;;;;5027233;28;19918;-65
2022/08/21 12:52:54;;;;;;;;;;;;;;;;;;4996014;28;21782;-67
2022/08/21 12:55:20;;;;;;;;;;;;;;;;;;4999443;28;20068;-69
2022/08/21 12:57:48;;;;;;;;;;;;;;;;;;4996663;28;19917;-65
2022/08/21 13:00:14;;;;;;;;;;;;;;;;;;4985282;28;19921;-69
2022/08/21 13:02:39;;;;;;;;;;;;;;;;;;4997948;28;20340;-67
2022/08/21 13:05:07;;;;;;;;;;;;;;;;;;4999277;28;19925;-72
2022/08/21 13:07:33;;;;;;;;;;;;;;;;;;4997279;28;20503;-67
2022/08/21 13:09:58;;;;;;;;;;;;;;;;;;4995874;28;20535;-65
2022/08/21 13:12:24;;;;;;;;;;;;;;;;;;5008444;28;21099;-67
2022/08/21 13:14:52;;;;;;;;;;;;;;;;;;4994656;28;19932;-67
2022/08/21 13:17:18;;;;;;;;;;;;;;;;;;4991833;28;19994;-68
2022/08/21 13:19:45;;;;;;;;;;;;;;;;;;4998508;28;19933;-72
2022/08/21 13:22:11;;;;;;;;;;;;;;;;;;4998318;28;19929;-73
2022/08/21 13:24:36;;;;;;;;;;;;;;;;;;5019610;28;20331;-67
2022/08/21 13:27:02;;;;;;;;;;;;;;;;;;5010133;28;19921;-71
2022/08/21 13:29:27;;;;;;;;;;;;;;;;;;4982145;28;20660;-68
2022/08/21 13:31:54;;;;;;;;;;;;;;;;;;4998543;28;19928;-71
2022/08/21 13:34:21;;;;;;;;;;;;;;;;;;4993824;28;19914;-68
2022/08/21 13:36:47;;;;;;;;;;;;;;;;;;4994931;28;20737;-68
2022/08/21 13:39:13;;;;;;;;;;;;;;;;;;4993698;28;19918;-71
2022/08/21 13:41:39;;;;;;;;;;;;;;;;;;4991751;28;19953;-69
2022/08/21 13:44:04;;;;;;;;;;;;;;;;;;4993919;28;19929;-71
2022/08/21 13:46:30;;;;;;;;;;;;;;;;;;4994992;28;19921;-72
2022/08/21 13:48:57;;;;;;;;;;;;;;;;;;4996683;28;19920;-70
2022/08/21 13:51:23;;;;;;;;;;;;;;;;;;4995551;28;20524;-67
2022/08/21 13:53:55;;;;;;;;;;;;;;;;;;4995440;28;21885;-68
2022/08/21 13:56:20;;;;;;;;;;;;;;;;;;4995107;28;20656;-67
2022/08/21 13:58:46;;;;;;;;;;;;;;;;;;4992239;28;19928;-68
2022/08/21 14:01:11;;;;;;;;;;;;;;;;;;4998277;28;19921;-68
2022/08/21 14:03:36;;;;;;;;;;;;;;;;;;4993700;28;19922;-69
2022/08/21 14:06:02;;;;;;;;;;;;;;;;;;4993382;28;19971;-67
2022/08/21 14:08:27;;;;;;;;;;;;;;;;;;4996365;28;19959;-66
2022/08/21 14:10:53;;;;;;;;;;;;;;;;;;4993239;28;19917;-69
2022/08/21 14:13:18;;;;;;;;;;;;;;;;;;4978776;28;19929;-72
2022/08/21 14:15:44;;;;;;;;;;;;;;;;;;4994971;28;19933;-69
2022/08/21 14:18:10;;;;;;;;;;;;;;;;;;4994521;28;19933;-67
2022/08/21 14:20:38;;;;;;;;;;;;;;;;;;4996738;28;20376;-66
2022/08/21 14:23:03;;;;;;;;;;;;;;;;;;4991522;28;21605;-68
2022/08/21 14:25:29;;;;;;;;;;;;;;;;;;4995501;28;19917;-67
2022/08/21 14:27:54;;;;;;;;;;;;;;;;;;5001406;28;20656;-67
2022/08/21 14:30:19;;;;;;;;;;;;;;;;;;5011915;28;19968;-67
2022/08/21 14:32:44;;;;;;;;;;;;;;;;;;4993037;28;19991;-67
2022/08/21 14:35:11;;;;;;;;;;;;;;;;;;4995641;28;20296;-67
2022/08/21 14:37:36;;;;;;;;;;;;;;;;;;4992641;28;19921;-67
2022/08/21 14:40:02;;;;;;;;;;;;;;;;;;4994199;28;19921;-69
2022/08/21 14:42:29;;;;;;;;;;;;;;;;;;4999429;28;20424;-68
2022/08/21 14:44:54;;;;;;;;;;;;;;;;;;4994326;28;19936;-67
2022/08/21 14:47:21;;;;;;;;;;;;;;;;;;4992475;28;19917;-67
2022/08/21 14:49:46;;;;;;;;;;;;;;;;;;4998358;28;20026;-67
2022/08/21 14:52:11;;;;;;;;;;;;;;;;;;4995112;28;19920;-70
2022/08/21 14:54:36;;;;;;;;;;;;;;;;;;4997706;28;19921;-68
2022/08/21 14:57:02;;;;;;;;;;;;;;;;;;4997773;28;20039;-68
2022/08/21 14:59:28;;;;;;;;;;;;;;;;;;4983450;28;20530;-68
2022/08/21 15:01:53;;;;;;;;;;;;;;;;;;5016019;28;19973;-69
2022/08/21 15:04:24;;;;;;;;;;;;;;;;;;4996998;28;19925;-68
2022/08/21 15:06:50;;;;;;;;;;;;;;;;;;4999640;28;21808;-67
2022/08/21 15:09:16;;;;;;;;;;;;;;;;;;4993288;28;19924;-70
2022/08/21 15:11:43;;;;;;;;;;;;;;;;;;4997059;28;19918;-70
2022/08/21 15:14:10;;;;;;;;;;;;;;;;;;4998540;28;19918;-67
2022/08/21 15:16:36;;;;;;;;;;;;;;;;;;4996515;28;19975;-66
2022/08/21 15:19:01;;;;;;;;;;;;;;;;;;4998408;28;21715;-67
2022/08/21 15:21:27;;;;;;;;;;;;;;;;;;4995925;28;20242;-67
2022/08/21 15:23:54;;;;;;;;;;;;;;;;;;4994679;28;20476;-70
2022/08/21 15:26:20;;;;;;;;;;;;;;;;;;4995257;28;20429;-67
2022/08/21 15:28:48;;;;;;;;;;;;;;;;;;4996578;28;20817;-67
2022/08/21 15:31:14;;;;;;;;;;;;;;;;;;4995441;28;19941;-66
2022/08/21 15:33:39;;;;;;;;;;;;;;;;;;5011426;28;20361;-68
2022/08/21 15:36:05;;;;;;;;;;;;;;;;;;5001054;28;19960;-67
2022/08/21 15:38:30;;;;;;;;;;;;;;;;;;4992912;28;19928;-68
2022/08/21 15:40:56;;;;;;;;;;;;;;;;;;4998054;28;20037;-66
2022/08/21 15:43:22;;;;;;;;;;;;;;;;;;4999098;28;20392;-66
2022/08/21 15:45:47;;;;;;;;;;;;;;;;;;4984124;28;19928;-65
2022/08/21 15:51:31;;;;;;;;;;;;;;;;;;4995026;28;19944;-66
2022/08/21 15:53:59;;;;;;;;;;;;;;;;;;5000510;28;19952;-66
2022/08/21 15:56:24;;;;;;;;;;;;;;;;;;5010455;28;20016;-68
2022/08/21 15:58:52;;;;;;;;;;;;;;;;;;4993528;28;19921;-68
2022/08/21 16:01:17;;;;;;;;;;;;;;;;;;4998681;28;20956;-67
2022/08/21 16:03:42;;;;;;;;;;;;;;;;;;4994880;28;20968;-65
2022/08/21 16:06:10;;;;;;;;;;;;;;;;;;5026595;28;19921;-66
2022/08/21 16:08:35;;;;;;;;;;;;;;;;;;4996144;28;20088;-67
2022/08/21 16:13:52;;;;;;;;;;;;;;;;;;4996574;28;19960;-67
2022/08/21 16:16:20;;;;;;;;;;;;;;;;;;4983174;28;20943;-65
2022/08/21 16:18:45;;;;;;;;;;;;;;;;;;4998687;28;19917;-66
2022/08/21 16:21:11;;;;;;;;;;;;;;;;;;4996504;28;20297;-67
2022/08/21 16:23:39;;;;;;;;;;;;;;;;;;4999513;28;19917;-71
2022/08/21 16:26:04;;;;;;;;;;;;;;;;;;5013322;28;20055;-65
2022/08/21 16:28:29;;;;;;;;;;;;;;;;;;4980452;28;19967;-67
2022/08/21 16:30:57;;;;;;;;;;;;;;;;;;4999917;28;19926;-68
2022/08/21 16:33:25;;;;;;;;;;;;;;;;;;4993684;28;20070;-66
2022/08/21 16:35:50;;;;;;;;;;;;;;;;;;4998286;28;19932;-64
2022/08/21 16:38:18;;;;;;;;;;;;;;;;;;5025501;28;20514;-66
2022/08/21 16:40:43;;;;;;;;;;;;;;;;;;4997950;28;19932;-65
2022/08/21 16:43:11;;;;;;;;;;;;;;;;;;4994811;28;19933;-66
2022/08/21 16:45:36;;;;;;;;;;;;;;;;;;4995198;28;19942;-65
2022/08/21 16:48:08;;;;;;;;;;;;;;;;;;4997444;28;19952;-65
2022/08/21 16:50:33;;;;;;;;;;;;;;;;;;4987689;28;21463;-66
2022/08/21 16:52:58;;;;;;;;;;;;;;;;;;5025890;28;19976;-69
2022/08/21 16:55:24;;;;;;;;;;;;;;;;;;5025439;28;20123;-65
2022/08/21 16:57:50;;;;;;;;;;;;;;;;;;4996110;28;19956;-67